TimeCDT,TemperatureF,Dew PointF,Humidity,Sea Level PressureIn,VisibilityMPH,Wind Direction,Wind SpeedMPH,Gust SpeedMPH,PrecipitationIn,Events,Conditions,WindDirDegrees,DateUTC
12:52 AM,43.0,39.9,89,29.86,10.0,WSW,3.5,-,N/A,,Scattered Clouds,250,2011-10-13 05:52:00
1:52 AM,45.0,42.1,90,29.85,10.0,SW,3.5,-,N/A,,Mostly Cloudy,220,2011-10-13 06:52:00
2:52 AM,45.0,37.9,76,29.84,10.0,West,9.2,-,N/A,,Partly Cloudy,260,2011-10-13 07:52:00
3:52 AM,45.0,36.0,71,29.83,10.0,WSW,12.7,-,N/A,,Clear,250,2011-10-13 08:52:00
4:52 AM,45.0,34.0,65,29.83,10.0,West,15.0,-,N/A,,Partly Cloudy,270,2011-10-13 09:52:00
5:52 AM,43.0,34.0,71,29.83,10.0,West,16.1,-,N/A,,Partly Cloudy,260,2011-10-13 10:52:00
6:52 AM,42.1,33.1,70,29.84,10.0,West,13.8,-,N/A,,Partly Cloudy,260,2011-10-13 11:52:00
7:52 AM,42.1,35.1,76,29.86,10.0,West,10.4,-,0.00,,Mostly Cloudy,270,2011-10-13 12:52:00
8:52 AM,44.1,37.9,79,29.87,10.0,West,13.8,-,N/A,,Scattered Clouds,270,2011-10-13 13:52:00
9:52 AM,46.9,37.9,71,29.89,10.0,West,8.1,-,N/A,,Clear,270,2011-10-13 14:52:00
10:52 AM,48.9,37.9,66,29.89,10.0,West,13.8,-,N/A,,Clear,280,2011-10-13 15:52:00
11:52 AM,54.0,39.0,57,29.88,10.0,WNW,16.1,24.2,N/A,,Clear,300,2011-10-13 16:52:00
12:52 PM,55.9,37.9,51,29.86,10.0,WNW,19.6,26.5,N/A,,Clear,300,2011-10-13 17:52:00
1:52 PM,57.0,36.0,45,29.85,10.0,West,21.9,27.6,N/A,,Partly Cloudy,280,2011-10-13 18:52:00
2:52 PM,57.2,37.4,48,29.82,10.0,NW,23.0,31.1,N/A,,Mostly Cloudy,310,2011-10-13 19:52:00
3:52 PM,54.0,37.9,55,29.85,10.0,NW,24.2,33.4,N/A,,Partly Cloudy,310,2011-10-13 20:52:00
4:52 PM,51.1,41.0,68,29.88,10.0,NW,15.0,24.2,0.00,,Overcast,310,2011-10-13 21:52:00
5:52 PM,52.0,37.9,59,29.88,10.0,NW,19.6,27.6,0.00,,Overcast,310,2011-10-13 22:52:00
6:52 PM,50.0,37.9,63,29.90,10.0,NW,11.5,-,N/A,,Clear,320,2011-10-13 23:52:00
7:52 PM,45.0,37.9,76,29.92,10.0,WNW,6.9,-,N/A,,Partly Cloudy,300,2011-10-14 00:52:00
8:52 PM,43.0,37.0,80,29.94,10.0,WNW,6.9,-,N/A,,Clear,300,2011-10-14 01:52:00
9:52 PM,41.0,36.0,82,29.94,10.0,WNW,5.8,-,N/A,,Clear,290,2011-10-14 02:52:00
10:52 PM,41.0,35.1,79,29.95,10.0,West,8.1,-,N/A,,Clear,280,2011-10-14 03:52:00
11:52 PM,41.0,35.1,79,29.94,10.0,West,10.4,-,N/A,,Clear,270,2011-10-14 04:52:00